aviador You're here:

KBMG Decoded Metar

BLOOMINGTON in IN, USA
Report Time2017-11-23 19:53:00
UTC Time2017-11-23 20:30:26
Flight Rules vfr VFR
Wind220° at 07 kt
W.Decomp.*RWY 24: 6.7 kt HW 2.2 kt LCW
RWY 17: 4.3 kt HW 5.5 kt RCW
W.Rank220° ranks 1
Current wind is below 220° avg. (8.3)
Visibility9999 m
Phenomena:N/A
Clouds:N/A
Expected CloudBase > 5,600 ft AGL from Temp-Dew spread
CeilingNone
Temp07°C (ISA -6)
Dew Point-7°C (37% RH)
AAT1.7°C
QNH1017 hPa
Density Alt3 ft
Elevation843 ft
Report Wrong Elevation
Raw Report
METAR KBMG 231953Z 22007KT 10SM CLR 07/M07 A3002 RMK AO2 SLP170 T00721067=

Extra information for KBMG:More info

Metar Taf Metar & Taf Last 4 Metars F.Rules Stats Wind Profile Meteogram Temp Stats Airport Information Weather charts Add Link Nearby VenuesMetar ALERT Operation Metar Decoded Social comments

AIRNAV info for KBMG